sensor_id;sensor_type;location;lat;lon;timestamp;pressure;altitude;pressure_sealevel;temperature;humidity
75089;BME280;63673;49.928;8.150;2023-07-08T00:00:17;991.71;;;22.01;46.79
75089;BME280;63673;49.928;8.150;2023-07-08T00:01:18;991.67;;;21.99;46.87
75089;BME280;63673;49.928;8.150;2023-07-08T00:02:23;991.64;;;21.98;47.08
75089;BME280;63673;49.928;8.150;2023-07-08T00:03:26;991.65;;;21.98;47.37
75089;BME280;63673;49.928;8.150;2023-07-08T00:04:27;991.59;;;21.97;47.39
75089;BME280;63673;49.928;8.150;2023-07-08T00:05:29;991.59;;;21.97;47.48
75089;BME280;63673;49.928;8.150;2023-07-08T00:06:31;991.54;;;21.97;47.5
75089;BME280;63673;49.928;8.150;2023-07-08T00:07:33;991.54;;;21.96;47.39
75089;BME280;63673;49.928;8.150;2023-07-08T00:08:20;991.45;;;21.95;47.39
75089;BME280;63673;49.928;8.150;2023-07-08T00:09:22;991.55;;;21.95;47.38
75089;BME280;63673;49.928;8.150;2023-07-08T00:10:24;991.51;;;21.96;47.47
75089;BME280;63673;49.928;8.150;2023-07-08T00:11:26;991.57;;;21.96;47.3
75089;BME280;63673;49.928;8.150;2023-07-08T00:12:28;991.53;;;21.96;47.34
75089;BME280;63673;49.928;8.150;2023-07-08T00:13:29;991.57;;;21.96;47.38
75089;BME280;63673;49.928;8.150;2023-07-08T00:14:30;991.6;;;21.96;47.34
75089;BME280;63673;49.928;8.150;2023-07-08T00:15:31;991.6;;;21.96;47.34
75089;BME280;63673;49.928;8.150;2023-07-08T00:16:33;991.64;;;21.96;47.71
75089;BME280;63673;49.928;8.150;2023-07-08T00:18:11;991.65;;;21.97;47.94
75089;BME280;63673;49.928;8.150;2023-07-08T00:19:11;991.63;;;21.96;47.53
75089;BME280;63673;49.928;8.150;2023-07-08T00:20:19;991.62;;;21.96;47.53
75089;BME280;63673;49.928;8.150;2023-07-08T00:21:20;991.66;;;21.96;47.65
75089;BME280;63673;49.928;8.150;2023-07-08T00:22:20;991.69;;;21.94;47.63
75089;BME280;63673;49.928;8.150;2023-07-08T00:23:21;991.65;;;21.93;47.89
75089;BME280;63673;49.928;8.150;2023-07-08T00:24:23;991.69;;;21.92;47.62
75089;BME280;63673;49.928;8.150;2023-07-08T00:25:25;991.71;;;21.9;47.51
75089;BME280;63673;49.928;8.150;2023-07-08T00:26:36;991.74;;;21.89;47.55
75089;BME280;63673;49.928;8.150;2023-07-08T00:27:38;991.76;;;21.87;47.68
75089;BME280;63673;49.928;8.150;2023-07-08T00:28:41;991.75;;;21.84;47.77
75089;BME280;63673;49.928;8.150;2023-07-08T00:29:41;991.71;;;21.83;48.04
75089;BME280;63673;49.928;8.150;2023-07-08T00:30:43;991.79;;;21.81;48.48
75089;BME280;63673;49.928;8.150;2023-07-08T00:31:45;991.78;;;21.8;48.16
75089;BME280;63673;49.928;8.150;2023-07-08T00:32:47;991.83;;;21.78;48.21
75089;BME280;63673;49.928;8.150;2023-07-08T00:33:50;991.82;;;21.77;48.19
75089;BME280;63673;49.928;8.150;2023-07-08T00:34:50;991.79;;;21.75;48.03
75089;BME280;63673;49.928;8.150;2023-07-08T00:35:52;991.78;;;21.74;48.24
75089;BME280;63673;49.928;8.150;2023-07-08T00:36:54;991.78;;;21.74;48.27
75089;BME280;63673;49.928;8.150;2023-07-08T00:37:56;991.75;;;21.73;48.09
75089;BME280;63673;49.928;8.150;2023-07-08T00:38:57;991.75;;;21.72;48.11
75089;BME280;63673;49.928;8.150;2023-07-08T00:39:59;991.71;;;21.72;48.19
75089;BME280;63673;49.928;8.150;2023-07-08T00:41:04;991.76;;;21.71;48.31
75089;BME280;63673;49.928;8.150;2023-07-08T00:42:03;991.73;;;21.7;48.22
75089;BME280;63673;49.928;8.150;2023-07-08T00:43:05;991.74;;;21.7;48.14
75089;BME280;63673;49.928;8.150;2023-07-08T00:44:07;991.74;;;21.7;48.15
75089;BME280;63673;49.928;8.150;2023-07-08T00:45:10;991.73;;;21.69;48.17
75089;BME280;63673;49.928;8.150;2023-07-08T00:46:13;991.75;;;21.69;48.23
75089;BME280;63673;49.928;8.150;2023-07-08T00:47:11;991.74;;;21.68;48.3
75089;BME280;63673;49.928;8.150;2023-07-08T00:48:17;991.71;;;21.67;48.24
75089;BME280;63673;49.928;8.150;2023-07-08T00:49:21;991.71;;;21.68;48.38
75089;BME280;63673;49.928;8.150;2023-07-08T00:50:16;991.74;;;21.67;48.73
75089;BME280;63673;49.928;8.150;2023-07-08T00:51:18;991.71;;;21.67;48.8
75089;BME280;63673;49.928;8.150;2023-07-08T00:52:21;991.7;;;21.67;48.39
75089;BME280;63673;49.928;8.150;2023-07-08T00:53:22;991.69;;;21.68;48.33
75089;BME280;63673;49.928;8.150;2023-07-08T00:54:23;991.64;;;21.68;48.29
75089;BME280;63673;49.928;8.150;2023-07-08T00:55:25;991.61;;;21.69;48.29
75089;BME280;63673;49.928;8.150;2023-07-08T00:56:28;991.66;;;21.69;48.51
75089;BME280;63673;49.928;8.150;2023-07-08T00:57:31;991.63;;;21.69;48.5
75089;BME280;63673;49.928;8.150;2023-07-08T00:58:31;991.56;;;21.7;48.53
75089;BME280;63673;49.928;8.150;2023-07-08T00:59:32;991.56;;;21.7;48.34
75089;BME280;63673;49.928;8.150;2023-07-08T01:00:33;991.51;;;21.7;48.25
75089;BME280;63673;49.928;8.150;2023-07-08T01:01:36;991.52;;;21.7;48.22
75089;BME280;63673;49.928;8.150;2023-07-08T01:02:40;991.55;;;21.71;48.09
75089;BME280;63673;49.928;8.150;2023-07-08T01:03:40;991.61;;;21.71;48.3
75089;BME280;63673;49.928;8.150;2023-07-08T01:04:42;991.62;;;21.73;47.9
75089;BME280;63673;49.928;8.150;2023-07-08T01:05:42;991.65;;;21.73;48.11
75089;BME280;63673;49.928;8.150;2023-07-08T01:06:45;991.69;;;21.74;47.87
75089;BME280;63673;49.928;8.150;2023-07-08T01:07:46;991.68;;;21.76;47.66
75089;BME280;63673;49.928;8.150;2023-07-08T01:08:47;991.7;;;21.77;47.6
75089;BME280;63673;49.928;8.150;2023-07-08T01:09:50;991.66;;;21.8;47.58
75089;BME280;63673;49.928;8.150;2023-07-08T01:10:52;991.62;;;21.82;47.42
75089;BME280;63673;49.928;8.150;2023-07-08T01:11:52;991.61;;;21.84;47.29
75089;BME280;63673;49.928;8.150;2023-07-08T01:12:55;991.56;;;21.87;47.35
75089;BME280;63673;49.928;8.150;2023-07-08T01:14:19;991.59;;;21.89;47.37
75089;BME280;63673;49.928;8.150;2023-07-08T01:15:21;991.54;;;21.91;47.32
75089;BME280;63673;49.928;8.150;2023-07-08T01:16:22;991.48;;;21.91;47.28
75089;BME280;63673;49.928;8.150;2023-07-08T01:17:22;991.52;;;21.94;47.28
75089;BME280;63673;49.928;8.150;2023-07-08T01:18:24;991.42;;;21.96;47.16
75089;BME280;63673;49.928;8.150;2023-07-08T01:19:31;991.47;;;21.96;47.58
75089;BME280;63673;49.928;8.150;2023-07-08T01:20:32;991.43;;;21.97;47.64
75089;BME280;63673;49.928;8.150;2023-07-08T01:21:38;991.4;;;21.97;47.24
75089;BME280;63673;49.928;8.150;2023-07-08T01:22:39;991.41;;;21.98;47.47
75089;BME280;63673;49.928;8.150;2023-07-08T01:23:40;991.4;;;21.97;47.41
75089;BME280;63673;49.928;8.150;2023-07-08T01:24:43;991.38;;;21.96;47.45
75089;BME280;63673;49.928;8.150;2023-07-08T01:25:51;991.33;;;21.96;47.29
75089;BME280;63673;49.928;8.150;2023-07-08T01:26:51;991.3;;;21.95;47.29
75089;BME280;63673;49.928;8.150;2023-07-08T01:27:55;991.24;;;21.93;47.23
75089;BME280;63673;49.928;8.150;2023-07-08T01:28:54;991.2;;;21.93;47.22
75089;BME280;63673;49.928;8.150;2023-07-08T01:29:58;991.18;;;21.93;47.04
75089;BME280;63673;49.928;8.150;2023-07-08T01:30:58;991.13;;;21.92;46.96
75089;BME280;63673;49.928;8.150;2023-07-08T01:32:00;991.12;;;21.92;46.95
75089;BME280;63673;49.928;8.150;2023-07-08T01:33:03;991.12;;;21.92;46.82
75089;BME280;63673;49.928;8.150;2023-07-08T01:34:03;991.12;;;21.91;47.04
75089;BME280;63673;49.928;8.150;2023-07-08T01:35:05;991.18;;;21.91;46.84
75089;BME280;63673;49.928;8.150;2023-07-08T01:36:07;991.21;;;21.9;46.76
75089;BME280;63673;49.928;8.150;2023-07-08T01:37:08;991.26;;;21.89;47.07
75089;BME280;63673;49.928;8.150;2023-07-08T01:38:10;991.35;;;21.89;46.87
75089;BME280;63673;49.928;8.150;2023-07-08T01:39:12;991.39;;;21.87;46.96
75089;BME280;63673;49.928;8.150;2023-07-08T01:40:14;991.43;;;21.86;47.06
75089;BME280;63673;49.928;8.150;2023-07-08T01:41:16;991.4;;;21.84;47.02
75089;BME280;63673;49.928;8.150;2023-07-08T01:42:17;991.39;;;21.82;47.08
75089;BME280;63673;49.928;8.150;2023-07-08T01:43:19;991.39;;;21.81;47.42
75089;BME280;63673;49.928;8.150;2023-07-08T01:44:21;991.36;;;21.78;47.09
75089;BME280;63673;49.928;8.150;2023-07-08T01:45:23;991.37;;;21.75;46.99
75089;BME280;63673;49.928;8.150;2023-07-08T01:46:24;991.37;;;21.73;46.93
75089;BME280;63673;49.928;8.150;2023-07-08T01:47:25;991.37;;;21.71;47.06
75089;BME280;63673;49.928;8.150;2023-07-08T01:48:28;991.4;;;21.69;46.92
75089;BME280;63673;49.928;8.150;2023-07-08T01:49:29;991.41;;;21.67;46.96
75089;BME280;63673;49.928;8.150;2023-07-08T01:50:31;991.4;;;21.65;47.04
75089;BME280;63673;49.928;8.150;2023-07-08T01:51:32;991.44;;;21.62;47.27
75089;BME280;63673;49.928;8.150;2023-07-08T01:52:34;991.41;;;21.6;47.39
75089;BME280;63673;49.928;8.150;2023-07-08T01:53:37;991.42;;;21.58;46.97
75089;BME280;63673;49.928;8.150;2023-07-08T01:54:38;991.38;;;21.56;47.06
75089;BME280;63673;49.928;8.150;2023-07-08T01:55:39;991.37;;;21.53;47.06
75089;BME280;63673;49.928;8.150;2023-07-08T01:56:41;991.4;;;21.52;47.18
75089;BME280;63673;49.928;8.150;2023-07-08T01:57:43;991.38;;;21.5;47.35
75089;BME280;63673;49.928;8.150;2023-07-08T01:58:45;991.39;;;21.48;47.32
75089;BME280;63673;49.928;8.150;2023-07-08T01:59:46;991.4;;;21.46;47.35
75089;BME280;63673;49.928;8.150;2023-07-08T02:00:48;991.41;;;21.43;47.39
75089;BME280;63673;49.928;8.150;2023-07-08T02:01:50;991.38;;;21.4;47.5
75089;BME280;63673;49.928;8.150;2023-07-08T02:02:52;991.39;;;21.37;47.78
75089;BME280;63673;49.928;8.150;2023-07-08T02:03:53;991.41;;;21.34;47.7
75089;BME280;63673;49.928;8.150;2023-07-08T02:04:55;991.4;;;21.32;47.68
75089;BME280;63673;49.928;8.150;2023-07-08T02:05:57;991.39;;;21.28;47.66
75089;BME280;63673;49.928;8.150;2023-07-08T02:06:59;991.42;;;21.26;47.71
75089;BME280;63673;49.928;8.150;2023-07-08T02:08:00;991.38;;;21.24;47.83
75089;BME280;63673;49.928;8.150;2023-07-08T02:09:02;991.39;;;21.2;47.95
75089;BME280;63673;49.928;8.150;2023-07-08T02:10:04;991.36;;;21.17;48.19
75089;BME280;63673;49.928;8.150;2023-07-08T02:11:05;991.45;;;21.14;48.23
75089;BME280;63673;49.928;8.150;2023-07-08T02:12:07;991.43;;;21.11;48.36
75089;BME280;63673;49.928;8.150;2023-07-08T02:13:09;991.49;;;21.07;48.59
75089;BME280;63673;49.928;8.150;2023-07-08T02:14:11;991.46;;;21.03;48.82
75089;BME280;63673;49.928;8.150;2023-07-08T02:15:12;991.46;;;21;50.23
75089;BME280;63673;49.928;8.150;2023-07-08T02:16:14;991.49;;;20.96;49
75089;BME280;63673;49.928;8.150;2023-07-08T02:17:16;991.48;;;20.93;48.97
75089;BME280;63673;49.928;8.150;2023-07-08T02:18:18;991.54;;;20.89;49.04
75089;BME280;63673;49.928;8.150;2023-07-08T02:19:19;991.52;;;20.85;49.52
75089;BME280;63673;49.928;8.150;2023-07-08T02:20:21;991.49;;;20.82;49.79
75089;BME280;63673;49.928;8.150;2023-07-08T02:21:23;991.52;;;20.79;49.71
75089;BME280;63673;49.928;8.150;2023-07-08T02:22:25;991.5;;;20.75;49.63
75089;BME280;63673;49.928;8.150;2023-07-08T02:23:26;991.48;;;20.7;49.86
75089;BME280;63673;49.928;8.150;2023-07-08T02:24:28;991.45;;;20.66;50.02
75089;BME280;63673;49.928;8.150;2023-07-08T02:25:30;991.45;;;20.62;49.78
75089;BME280;63673;49.928;8.150;2023-07-08T02:26:32;991.43;;;20.57;49.92
75089;BME280;63673;49.928;8.150;2023-07-08T02:27:33;991.44;;;20.52;50.8
75089;BME280;63673;49.928;8.150;2023-07-08T02:28:35;991.36;;;20.5;50.46
75089;BME280;63673;49.928;8.150;2023-07-08T02:29:37;991.36;;;20.46;50.62
75089;BME280;63673;49.928;8.150;2023-07-08T02:30:38;991.38;;;20.43;50.77
75089;BME280;63673;49.928;8.150;2023-07-08T02:31:40;991.39;;;20.39;51.08
75089;BME280;63673;49.928;8.150;2023-07-08T02:32:42;991.38;;;20.36;51.44
75089;BME280;63673;49.928;8.150;2023-07-08T02:33:44;991.4;;;20.33;51.42
75089;BME280;63673;49.928;8.150;2023-07-08T02:34:45;991.35;;;20.3;51.46
75089;BME280;63673;49.928;8.150;2023-07-08T02:35:47;991.37;;;20.26;51.85
75089;BME280;63673;49.928;8.150;2023-07-08T02:36:49;991.33;;;20.23;52.08
75089;BME280;63673;49.928;8.150;2023-07-08T02:37:50;991.32;;;20.2;52.08
75089;BME280;63673;49.928;8.150;2023-07-08T02:38:52;991.3;;;20.17;52.51
75089;BME280;63673;49.928;8.150;2023-07-08T02:39:54;991.22;;;20.15;52.05
75089;BME280;63673;49.928;8.150;2023-07-08T02:40:56;991.29;;;20.13;52.15
75089;BME280;63673;49.928;8.150;2023-07-08T02:41:57;991.31;;;20.1;52.75
75089;BME280;63673;49.928;8.150;2023-07-08T02:42:59;991.23;;;20.08;52.23
75089;BME280;63673;49.928;8.150;2023-07-08T02:44:01;991.24;;;20.06;52.22
75089;BME280;63673;49.928;8.150;2023-07-08T02:45:03;991.28;;;20.05;52.37
75089;BME280;63673;49.928;8.150;2023-07-08T02:46:04;991.29;;;20.02;52.93
75089;BME280;63673;49.928;8.150;2023-07-08T02:47:06;991.3;;;20;52.54
75089;BME280;63673;49.928;8.150;2023-07-08T02:48:08;991.28;;;19.98;52.61
75089;BME280;63673;49.928;8.150;2023-07-08T02:49:10;991.27;;;19.97;52.54
75089;BME280;63673;49.928;8.150;2023-07-08T02:50:11;991.28;;;19.95;52.57
75089;BME280;63673;49.928;8.150;2023-07-08T02:51:13;991.3;;;19.96;52.61
75089;BME280;63673;49.928;8.150;2023-07-08T02:52:15;991.3;;;19.95;52.6
75089;BME280;63673;49.928;8.150;2023-07-08T02:53:16;991.32;;;19.96;52.59
75089;BME280;63673;49.928;8.150;2023-07-08T02:54:18;991.32;;;19.95;52.83
75089;BME280;63673;49.928;8.150;2023-07-08T02:55:20;991.31;;;19.96;53.16
75089;BME280;63673;49.928;8.150;2023-07-08T02:56:22;991.32;;;19.96;52.77
75089;BME280;63673;49.928;8.150;2023-07-08T02:57:23;991.35;;;19.95;52.6
75089;BME280;63673;49.928;8.150;2023-07-08T02:58:25;991.31;;;19.96;52.76
75089;BME280;63673;49.928;8.150;2023-07-08T02:59:27;991.34;;;19.94;52.96
75089;BME280;63673;49.928;8.150;2023-07-08T03:00:29;991.32;;;19.95;52.7
75089;BME280;63673;49.928;8.150;2023-07-08T03:01:30;991.34;;;19.95;53.07
75089;BME280;63673;49.928;8.150;2023-07-08T03:02:32;991.33;;;19.95;53.35
75089;BME280;63673;49.928;8.150;2023-07-08T03:03:34;991.39;;;19.95;52.89
75089;BME280;63673;49.928;8.150;2023-07-08T03:04:36;991.38;;;19.95;53.02
75089;BME280;63673;49.928;8.150;2023-07-08T03:05:37;991.39;;;19.95;53.09
75089;BME280;63673;49.928;8.150;2023-07-08T03:06:39;991.39;;;19.96;52.99
75089;BME280;63673;49.928;8.150;2023-07-08T03:07:41;991.35;;;19.96;53.25
75089;BME280;63673;49.928;8.150;2023-07-08T03:08:43;991.35;;;19.97;53.16
75089;BME280;63673;49.928;8.150;2023-07-08T03:09:44;991.39;;;19.99;53.18
75089;BME280;63673;49.928;8.150;2023-07-08T03:10:47;991.39;;;20;53.12
75089;BME280;63673;49.928;8.150;2023-07-08T03:11:48;991.34;;;20.03;53.06
75089;BME280;63673;49.928;8.150;2023-07-08T03:12:49;991.37;;;20.05;52.92
75089;BME280;63673;49.928;8.150;2023-07-08T03:13:51;991.36;;;20.07;52.94
75089;BME280;63673;49.928;8.150;2023-07-08T03:14:53;991.37;;;20.1;52.94
75089;BME280;63673;49.928;8.150;2023-07-08T03:15:55;991.37;;;20.12;53.02
75089;BME280;63673;49.928;8.150;2023-07-08T03:16:56;991.37;;;20.14;52.8
75089;BME280;63673;49.928;8.150;2023-07-08T03:17:58;991.37;;;20.15;52.74
75089;BME280;63673;49.928;8.150;2023-07-08T03:19:00;991.36;;;20.17;52.66
75089;BME280;63673;49.928;8.150;2023-07-08T03:20:02;991.37;;;20.19;52.64
75089;BME280;63673;49.928;8.150;2023-07-08T03:21:03;991.37;;;20.22;52.55
75089;BME280;63673;49.928;8.150;2023-07-08T03:22:05;991.38;;;20.24;52.63
75089;BME280;63673;49.928;8.150;2023-07-08T03:23:07;991.38;;;20.25;52.52
75089;BME280;63673;49.928;8.150;2023-07-08T03:24:09;991.37;;;20.26;52.41
75089;BME280;63673;49.928;8.150;2023-07-08T03:25:10;991.37;;;20.28;52.42
75089;BME280;63673;49.928;8.150;2023-07-08T03:26:12;991.4;;;20.28;52.54
75089;BME280;63673;49.928;8.150;2023-07-08T03:27:14;991.33;;;20.28;52.44
75089;BME280;63673;49.928;8.150;2023-07-08T03:28:15;991.41;;;20.28;52.5
75089;BME280;63673;49.928;8.150;2023-07-08T03:29:18;991.34;;;20.27;52.46
75089;BME280;63673;49.928;8.150;2023-07-08T03:30:19;991.39;;;20.26;52.37
75089;BME280;63673;49.928;8.150;2023-07-08T03:31:21;991.38;;;20.25;52.34
75089;BME280;63673;49.928;8.150;2023-07-08T03:32:22;991.41;;;20.26;52.09
75089;BME280;63673;49.928;8.150;2023-07-08T03:33:24;991.4;;;20.25;51.77
75089;BME280;63673;49.928;8.150;2023-07-08T03:34:26;991.41;;;20.25;52
75089;BME280;63673;49.928;8.150;2023-07-08T03:35:28;991.36;;;20.25;51.94
75089;BME280;63673;49.928;8.150;2023-07-08T03:36:29;991.45;;;20.24;51.86
75089;BME280;63673;49.928;8.150;2023-07-08T03:37:31;991.44;;;20.25;51.77
75089;BME280;63673;49.928;8.150;2023-07-08T03:38:33;991.39;;;20.25;51.88
75089;BME280;63673;49.928;8.150;2023-07-08T03:39:35;991.38;;;20.25;51.84
75089;BME280;63673;49.928;8.150;2023-07-08T03:40:36;991.43;;;20.26;51.79
75089;BME280;63673;49.928;8.150;2023-07-08T03:41:38;991.43;;;20.28;51.62
75089;BME280;63673;49.928;8.150;2023-07-08T03:42:40;991.46;;;20.26;51.52
75089;BME280;63673;49.928;8.150;2023-07-08T03:43:41;991.43;;;20.28;51.66
75089;BME280;63673;49.928;8.150;2023-07-08T03:44:43;991.45;;;20.3;51.38
75089;BME280;63673;49.928;8.150;2023-07-08T03:45:46;991.41;;;20.31;51.48
75089;BME280;63673;49.928;8.150;2023-07-08T03:46:47;991.43;;;20.31;51.35
75089;BME280;63673;49.928;8.150;2023-07-08T03:47:48;991.42;;;20.33;51.46
75089;BME280;63673;49.928;8.150;2023-07-08T03:48:50;991.43;;;20.34;51.5
75089;BME280;63673;49.928;8.150;2023-07-08T03:49:52;991.43;;;20.36;51.38
75089;BME280;63673;49.928;8.150;2023-07-08T03:50:54;991.46;;;20.36;51.27
75089;BME280;63673;49.928;8.150;2023-07-08T03:51:55;991.45;;;20.37;51.34
75089;BME280;63673;49.928;8.150;2023-07-08T03:52:57;991.43;;;20.37;51.4
75089;BME280;63673;49.928;8.150;2023-07-08T03:53:59;991.45;;;20.38;51.47
75089;BME280;63673;49.928;8.150;2023-07-08T03:55:01;991.44;;;20.38;51.41
75089;BME280;63673;49.928;8.150;2023-07-08T03:56:02;991.4;;;20.39;51.29
75089;BME280;63673;49.928;8.150;2023-07-08T03:57:04;991.38;;;20.39;51.13
75089;BME280;63673;49.928;8.150;2023-07-08T03:58:06;991.38;;;20.39;51.21
75089;BME280;63673;49.928;8.150;2023-07-08T03:59:07;991.39;;;20.39;51.05
75089;BME280;63673;49.928;8.150;2023-07-08T04:00:09;991.42;;;20.41;51.09
75089;BME280;63673;49.928;8.150;2023-07-08T04:01:13;991.43;;;20.42;51.17
75089;BME280;63673;49.928;8.150;2023-07-08T04:02:13;991.45;;;20.42;50.99
75089;BME280;63673;49.928;8.150;2023-07-08T04:03:14;991.44;;;20.42;50.94
75089;BME280;63673;49.928;8.150;2023-07-08T04:04:16;991.44;;;20.43;50.96
75089;BME280;63673;49.928;8.150;2023-07-08T04:05:19;991.46;;;20.46;51.19
75089;BME280;63673;49.928;8.150;2023-07-08T04:06:20;991.49;;;20.46;51.08
75089;BME280;63673;49.928;8.150;2023-07-08T04:07:21;991.52;;;20.48;51.11
75089;BME280;63673;49.928;8.150;2023-07-08T04:08:23;991.49;;;20.48;50.91
75089;BME280;63673;49.928;8.150;2023-07-08T04:09:25;991.49;;;20.5;51.25
75089;BME280;63673;49.928;8.150;2023-07-08T04:10:27;991.54;;;20.52;51.14
75089;BME280;63673;49.928;8.150;2023-07-08T04:11:28;991.57;;;20.53;51.08
75089;BME280;63673;49.928;8.150;2023-07-08T04:12:30;991.56;;;20.53;51.03
75089;BME280;63673;49.928;8.150;2023-07-08T04:13:32;991.55;;;20.55;51.02
75089;BME280;63673;49.928;8.150;2023-07-08T04:14:33;991.56;;;20.56;51.35
75089;BME280;63673;49.928;8.150;2023-07-08T04:15:35;991.53;;;20.57;51.23
75089;BME280;63673;49.928;8.150;2023-07-08T04:16:42;991.54;;;20.58;51.33
75089;BME280;63673;49.928;8.150;2023-07-08T04:17:41;991.51;;;20.59;51.22
75089;BME280;63673;49.928;8.150;2023-07-08T04:18:40;991.51;;;20.6;51.56
75089;BME280;63673;49.928;8.150;2023-07-08T04:19:42;991.51;;;20.6;51.36
75089;BME280;63673;49.928;8.150;2023-07-08T04:20:44;991.57;;;20.61;51.28
75089;BME280;63673;49.928;8.150;2023-07-08T04:21:46;991.55;;;20.61;51.23
75089;BME280;63673;49.928;8.150;2023-07-08T04:22:47;991.55;;;20.61;51.48
75089;BME280;63673;49.928;8.150;2023-07-08T04:23:49;991.53;;;20.63;51.35
75089;BME280;63673;49.928;8.150;2023-07-08T04:24:51;991.54;;;20.64;51.47
75089;BME280;63673;49.928;8.150;2023-07-08T04:25:54;991.53;;;20.64;51.08
75089;BME280;63673;49.928;8.150;2023-07-08T04:26:54;991.51;;;20.64;51.38
75089;BME280;63673;49.928;8.150;2023-07-08T04:27:56;991.51;;;20.64;51.26
75089;BME280;63673;49.928;8.150;2023-07-08T04:28:58;991.54;;;20.65;51.31
75089;BME280;63673;49.928;8.150;2023-07-08T04:29:59;991.5;;;20.66;51.1
75089;BME280;63673;49.928;8.150;2023-07-08T04:31:01;991.52;;;20.67;50.93
75089;BME280;63673;49.928;8.150;2023-07-08T04:32:03;991.56;;;20.68;50.82
75089;BME280;63673;49.928;8.150;2023-07-08T04:33:05;991.54;;;20.68;51.03
75089;BME280;63673;49.928;8.150;2023-07-08T04:34:07;991.54;;;20.69;51.31
75089;BME280;63673;49.928;8.150;2023-07-08T04:35:08;991.57;;;20.69;51.46
75089;BME280;63673;49.928;8.150;2023-07-08T04:36:11;991.59;;;20.7;51.1
75089;BME280;63673;49.928;8.150;2023-07-08T04:37:12;991.63;;;20.7;51.05
75089;BME280;63673;49.928;8.150;2023-07-08T04:38:14;991.57;;;20.7;51.33
75089;BME280;63673;49.928;8.150;2023-07-08T04:39:15;991.66;;;20.71;50.73
75089;BME280;63673;49.928;8.150;2023-07-08T04:40:18;991.66;;;20.71;50.94
75089;BME280;63673;49.928;8.150;2023-07-08T04:41:19;991.7;;;20.72;51.09
75089;BME280;63673;49.928;8.150;2023-07-08T04:42:20;991.68;;;20.71;51.42
75089;BME280;63673;49.928;8.150;2023-07-08T04:43:22;991.72;;;20.72;51.02
75089;BME280;63673;49.928;8.150;2023-07-08T04:44:24;991.75;;;20.72;50.7
75089;BME280;63673;49.928;8.150;2023-07-08T04:45:25;991.74;;;20.74;50.74
75089;BME280;63673;49.928;8.150;2023-07-08T04:46:30;991.76;;;20.74;50.86
75089;BME280;63673;49.928;8.150;2023-07-08T04:47:29;991.75;;;20.75;51.06
75089;BME280;63673;49.928;8.150;2023-07-08T04:48:31;991.75;;;20.75;50.82
75089;BME280;63673;49.928;8.150;2023-07-08T04:49:32;991.72;;;20.76;50.99
75089;BME280;63673;49.928;8.150;2023-07-08T04:50:34;991.75;;;20.76;51.28
75089;BME280;63673;49.928;8.150;2023-07-08T04:51:36;991.78;;;20.76;51.27
75089;BME280;63673;49.928;8.150;2023-07-08T04:52:38;991.75;;;20.76;51.08
75089;BME280;63673;49.928;8.150;2023-07-08T04:53:39;991.72;;;20.77;51.43
75089;BME280;63673;49.928;8.150;2023-07-08T04:54:41;991.73;;;20.77;51.3
75089;BME280;63673;49.928;8.150;2023-07-08T04:55:43;991.68;;;20.78;51.54
75089;BME280;63673;49.928;8.150;2023-07-08T04:56:45;991.66;;;20.78;51.05
75089;BME280;63673;49.928;8.150;2023-07-08T04:57:46;991.66;;;20.79;51.3
75089;BME280;63673;49.928;8.150;2023-07-08T04:58:48;991.6;;;20.79;51.65
75089;BME280;63673;49.928;8.150;2023-07-08T04:59:50;991.61;;;20.8;51.37
75089;BME280;63673;49.928;8.150;2023-07-08T05:00:51;991.6;;;20.81;51.37
75089;BME280;63673;49.928;8.150;2023-07-08T05:01:53;991.59;;;20.81;51.54
75089;BME280;63673;49.928;8.150;2023-07-08T05:02:55;991.57;;;20.82;51.34
75089;BME280;63673;49.928;8.150;2023-07-08T05:03:57;991.56;;;20.84;51.04
75089;BME280;63673;49.928;8.150;2023-07-08T05:04:58;991.61;;;20.84;51.07
75089;BME280;63673;49.928;8.150;2023-07-08T05:06:00;991.62;;;20.86;50.91
75089;BME280;63673;49.928;8.150;2023-07-08T05:07:02;991.65;;;20.86;50.75
75089;BME280;63673;49.928;8.150;2023-07-08T05:08:04;991.68;;;20.87;50.8
75089;BME280;63673;49.928;8.150;2023-07-08T05:09:05;991.67;;;20.88;50.9
75089;BME280;63673;49.928;8.150;2023-07-08T05:10:07;991.73;;;20.89;50.71
75089;BME280;63673;49.928;8.150;2023-07-08T05:11:09;991.77;;;20.9;50.86
75089;BME280;63673;49.928;8.150;2023-07-08T05:12:11;991.77;;;20.92;50.82
75089;BME280;63673;49.928;8.150;2023-07-08T05:13:12;991.84;;;20.92;50.88
75089;BME280;63673;49.928;8.150;2023-07-08T05:14:14;991.87;;;20.93;50.55
75089;BME280;63673;49.928;8.150;2023-07-08T05:15:16;991.93;;;20.93;50.27
75089;BME280;63673;49.928;8.150;2023-07-08T05:16:17;991.93;;;20.94;50.1
75089;BME280;63673;49.928;8.150;2023-07-08T05:17:19;991.92;;;20.94;50.4
75089;BME280;63673;49.928;8.150;2023-07-08T05:18:21;991.91;;;20.94;50.46
75089;BME280;63673;49.928;8.150;2023-07-08T05:19:23;991.92;;;20.94;50.47
75089;BME280;63673;49.928;8.150;2023-07-08T05:20:24;991.92;;;20.94;50.27
75089;BME280;63673;49.928;8.150;2023-07-08T05:21:28;991.92;;;20.95;50.27
75089;BME280;63673;49.928;8.150;2023-07-08T05:22:28;991.92;;;20.96;50.15
75089;BME280;63673;49.928;8.150;2023-07-08T05:23:30;991.96;;;20.95;50.68
75089;BME280;63673;49.928;8.150;2023-07-08T05:24:31;991.92;;;20.96;51.26
75089;BME280;63673;49.928;8.150;2023-07-08T05:25:33;991.91;;;20.95;52.34
75089;BME280;63673;49.928;8.150;2023-07-08T05:26:35;991.88;;;20.95;52.54
75089;BME280;63673;49.928;8.150;2023-07-08T05:27:37;991.88;;;20.93;54.49
75089;BME280;63673;49.928;8.150;2023-07-08T05:28:38;991.82;;;20.88;55.51
75089;BME280;63673;49.928;8.150;2023-07-08T05:29:40;991.83;;;20.85;55.98
75089;BME280;63673;49.928;8.150;2023-07-08T05:30:42;991.81;;;20.81;56.35
75089;BME280;63673;49.928;8.150;2023-07-08T05:31:43;991.81;;;20.77;58.08
75089;BME280;63673;49.928;8.150;2023-07-08T05:32:45;991.83;;;20.72;57.18
75089;BME280;63673;49.928;8.150;2023-07-08T05:33:47;991.84;;;20.68;57.06
75089;BME280;63673;49.928;8.150;2023-07-08T05:34:49;991.81;;;20.62;59.52
75089;BME280;63673;49.928;8.150;2023-07-08T05:35:50;991.85;;;20.58;58.53
75089;BME280;63673;49.928;8.150;2023-07-08T05:36:52;991.84;;;20.51;58.01
75089;BME280;63673;49.928;8.150;2023-07-08T05:37:54;991.78;;;20.46;58.73